createdAt,value
2023-03-16T00:00:23.465Z,101104.13
2023-03-16T00:02:52.081Z,101100.50
2023-03-16T00:05:20.448Z,101105.50
2023-03-16T00:07:48.947Z,101122.38
2023-03-16T00:10:17.656Z,101111.63
2023-03-16T00:12:46.262Z,101111.69
2023-03-16T00:15:14.543Z,101110.84
2023-03-16T00:17:43.073Z,101106.59
2023-03-16T00:20:12.388Z,101115.88
2023-03-16T00:22:41.058Z,101116.41
2023-03-16T00:25:11.071Z,101115.22
2023-03-16T00:27:39.428Z,101117.44
2023-03-16T00:30:08.110Z,101117.22
2023-03-16T00:32:38.303Z,101122.84
2023-03-16T00:35:09.568Z,101120.63
2023-03-16T00:37:40.315Z,101113.88
2023-03-16T00:40:09.900Z,101118.97
2023-03-16T00:42:38.710Z,101120.22
2023-03-16T00:45:07.595Z,101117.00
2023-03-16T00:47:36.777Z,101121.13
2023-03-16T00:50:05.548Z,101118.47
2023-03-16T00:52:36.184Z,101117.50
2023-03-16T00:55:05.272Z,101118.19
2023-03-16T00:57:33.942Z,101110.19
2023-03-16T01:00:11.213Z,101113.81
2023-03-16T01:02:39.467Z,101109.44
2023-03-16T01:05:10.041Z,101109.81
2023-03-16T01:07:39.056Z,101111.63
2023-03-16T01:10:08.651Z,101112.59
2023-03-16T01:12:37.320Z,101114.59
2023-03-16T01:15:07.537Z,101107.78
2023-03-16T01:17:35.655Z,101111.81
2023-03-16T01:20:09.051Z,101109.75
2023-03-16T01:22:37.603Z,101109.56
2023-03-16T01:25:06.256Z,101112.53
2023-03-16T01:27:34.930Z,101115.66
2023-03-16T01:30:03.301Z,101115.88
2023-03-16T01:32:32.006Z,101114.25
2023-03-16T01:35:00.163Z,101110.63
2023-03-16T01:37:28.311Z,101112.56
2023-03-16T01:40:00.671Z,101105.81
2023-03-16T01:42:28.990Z,101103.34
2023-03-16T01:45:02.751Z,101098.75
2023-03-16T01:47:39.108Z,101109.50
2023-03-16T01:50:13.726Z,101098.13
2023-03-16T01:52:43.953Z,101103.16
2023-03-16T01:55:15.944Z,101094.59
2023-03-16T01:57:47.281Z,101097.00
2023-03-16T02:00:24.433Z,101094.47
2023-03-16T02:03:11.468Z,101098.09
2023-03-16T02:06:01.839Z,101091.81
2023-03-16T02:08:33.025Z,101103.97
2023-03-16T02:11:02.052Z,101099.34
2023-03-16T02:13:46.768Z,101100.09
2023-03-16T02:16:23.314Z,101105.50
2023-03-16T02:18:52.878Z,101095.72
2023-03-16T02:21:36.480Z,101105.50
2023-03-16T02:24:06.166Z,101103.81
2023-03-16T02:27:11.162Z,101101.16
2023-03-16T02:29:54.437Z,101097.53
2023-03-16T02:32:29.951Z,101096.28
2023-03-16T02:35:00.135Z,101103.81
2023-03-16T02:37:29.084Z,101105.13
2023-03-16T02:39:57.598Z,101103.94
2023-03-16T02:42:27.406Z,101101.00
2023-03-16T02:45:00.816Z,101102.28
2023-03-16T02:47:44.917Z,101115.13
2023-03-16T02:50:14.357Z,101112.34
2023-03-16T02:52:42.712Z,101113.13
2023-03-16T02:55:12.037Z,101112.19
2023-03-16T02:57:40.919Z,101113.81
2023-03-16T03:00:19.476Z,101117.38
2023-03-16T03:02:53.333Z,101119.19
2023-03-16T03:05:21.783Z,101111.31
2023-03-16T03:07:50.344Z,101120.25
2023-03-16T03:10:20.122Z,101120.34
2023-03-16T03:12:50.315Z,101124.91
2023-03-16T03:15:19.306Z,101142.13
2023-03-16T03:17:58.426Z,101141.19
2023-03-16T03:20:30.901Z,101143.31
2023-03-16T03:22:59.591Z,101142.63
2023-03-16T03:25:28.180Z,101145.28
2023-03-16T03:27:56.999Z,101144.53
2023-03-16T03:30:27.133Z,101148.06
2023-03-16T03:32:55.925Z,101159.66
2023-03-16T03:35:24.732Z,101164.00
2023-03-16T03:37:53.487Z,101167.81
2023-03-16T03:40:22.624Z,101167.06
2023-03-16T03:42:58.651Z,101166.28
2023-03-16T03:45:28.622Z,101171.88
2023-03-16T03:47:57.454Z,101183.47
2023-03-16T03:50:27.338Z,101178.41
2023-03-16T03:53:10.096Z,101187.69
2023-03-16T03:55:58.708Z,101193.22
2023-03-16T03:58:27.355Z,101186.00
2023-03-16T04:00:55.379Z,101190.28
2023-03-16T04:03:23.736Z,101190.34
2023-03-16T04:05:52.697Z,101191.41
2023-03-16T04:08:21.222Z,101195.19
2023-03-16T04:10:50.019Z,101195.16
2023-03-16T04:13:18.703Z,101194.75
2023-03-16T04:15:47.352Z,101198.63
2023-03-16T04:18:22.810Z,101195.28
2023-03-16T04:20:53.985Z,101198.19
2023-03-16T04:23:25.378Z,101196.97
2023-03-16T04:25:55.639Z,101194.53
2023-03-16T04:28:27.208Z,101193.75
2023-03-16T04:30:55.885Z,101192.97
2023-03-16T04:33:30.519Z,101189.81
2023-03-16T04:35:59.305Z,101188.34
2023-03-16T04:38:29.364Z,101197.59
2023-03-16T04:41:03.990Z,101198.19
2023-03-16T04:43:37.804Z,101201.47
2023-03-16T04:46:13.341Z,101202.22
2023-03-16T04:48:42.232Z,101207.88
2023-03-16T04:51:11.485Z,101211.47
2023-03-16T04:53:45.347Z,101209.44
2023-03-16T04:56:21.998Z,101219.19
